Terminal Aerodrome Forecast
Issued by NWS Cleveland, OH

Home | Current Version | Previous Version | Text Only | Print | Product List | Glossary On
Versions: 1 2 3 4 5 6 7 8 9 10 11 12 13
000
FTUS41 KCLE 252300
TAFMFD
TAF
KMFD 252330Z 2600/2624 21015G25KT P6SM SCT050
     FM260200 20010KT P6SM BKN120
     FM260900 20006KT 5SM BR OVC025
     FM261400 20010KT P6SM BKN035
     FM261900 19012G20KT 6SM -SHRA OVC035=

USA.gov is the U.S. government's official web portal to all federal, state and local government web resources and services.